Texas General Land Office
 Texas General Land Office
 George P. Bush, Commissioner

 Oil Spill Prevention
 & Response

Texas Automated Buoy System
Real Time Ocean Observations
Supporting Oil Spill Prevention and
Response since 1995
Geochemical and Environmental Research Group

TABS Buoy F -- Texas Automated Buoy System

TABS Buoy F Conditions at 02/26/2018 01:00 UTC (02/25/2018 19:00 CST)
28° 50.5500'N   94° 14.4960'W
AA3900 DCS - sensor depth 2m
Water Depth: 79 feet (24 meters)
Speed: 16.02 cm/s (0.31 kts) Direction: 223 °T (SW) Water Temp: 18°C (65 °F)
System Voltage: 12.2 V Signal Strength: -2.4 dB Ping Count: 128
  


IMPORTANT: Notice to Mariners


Today's Velocity Data (download)

   Date   |  Time  |   East |   North|   Speed|  Dir | WaterT |
          |  (UTC) |  (cm/s)|  (cm/s)|  (cm/s)| (°T) |  (°C)  |
==========+========+========+========+========+======+========+
02/25/2018 05:30:00    -7.40   -15.69    17.35  205.3   18.6
02/25/2018 06:00:00   -10.16   -12.81    16.35  218.4   18.6
02/25/2018 06:30:00   -10.54   -15.89    19.07  213.6   18.6
02/25/2018 07:00:00    -9.44   -17.04    19.48  209.0   18.6
02/25/2018 07:30:00    -8.02   -14.42    16.50  209.1   18.6
02/25/2018 08:00:00    -9.34   -15.89    18.43  210.4   18.6
02/25/2018 08:30:00    -6.69   -14.88    16.31  204.2   18.6
02/25/2018 09:00:00    -7.06   -12.59    14.43  209.3   18.6
02/25/2018 09:30:00    -4.22   -12.72    13.40  198.4   18.6
02/25/2018 10:00:00    -4.90   -12.13    13.08  202.0   18.6
02/25/2018 10:30:00    -3.54   -12.17    12.67  196.2   18.6
02/25/2018 11:00:00    -1.01   -13.72    13.76  184.2   18.6
02/25/2018 11:30:00     1.49   -12.43    12.52  173.2   18.6
02/25/2018 12:00:00     2.20   -10.52    10.75  168.2   18.6
02/25/2018 12:30:00     0.86   -11.31    11.34  175.7   18.6
02/25/2018 13:00:00     0.08    -9.70     9.70  179.5   18.6
02/25/2018 13:30:00    -1.52    -8.82     8.95  189.8   18.5
02/25/2018 14:00:00    -0.33    -8.51     8.52  182.2   18.6
02/25/2018 14:30:00    -1.84    -5.79     6.08  197.6   18.6
02/25/2018 15:00:00    -1.31    -5.99     6.13  192.3   18.6
02/25/2018 15:30:00    -2.45    -7.61     7.99  197.8   18.6
02/25/2018 16:00:00    -0.78    -8.51     8.55  185.2   18.6
02/25/2018 16:30:00    -0.28    -7.72     7.73  182.1   18.7
02/25/2018 17:00:00    -0.29    -9.79     9.79  181.7   18.7
02/25/2018 17:30:00    -1.77   -13.17    13.29  187.7   18.8
02/25/2018 18:00:00    -1.78   -13.88    13.99  187.3   18.8
02/25/2018 18:30:00    -2.43   -16.53    16.71  188.4   18.8
02/25/2018 19:00:00    -2.75   -19.16    19.36  188.2   18.9
02/25/2018 19:30:00    -2.27   -21.15    21.27  186.1   19.0
02/25/2018 20:00:00    -4.44   -19.50    20.00  192.8   19.1
02/25/2018 20:30:00    -5.06   -20.03    20.66  194.2   19.2
02/25/2018 21:00:00    -5.90   -19.10    19.99  197.2   19.2
02/25/2018 21:30:00    -6.59   -18.73    19.86  199.4   19.3
02/25/2018 22:00:00    -6.89   -15.85    17.28  203.5   19.2
02/25/2018 22:30:00    -8.82   -15.69    18.00  209.3   18.9
02/25/2018 23:00:00    -6.94   -16.73    18.11  202.5   18.6
02/25/2018 23:30:00    -8.31   -15.00    17.15  209.0   18.6
02/26/2018 00:00:00   -11.84   -14.77    18.93  218.7   18.6
02/26/2018 00:30:00    -9.37   -10.81    14.31  220.9   18.5
02/26/2018 01:00:00   -10.96   -11.69    16.02  223.2   18.5



       
 

Today's Temperature - Salinity Data     (Download)


   Date   |  Time  |   Temp |   Cond |Salinity| Density|SoundVel|
          |  (UTC) |   (°C) | (ms/cm)|        | kg/m^3 |  (m/s) |
==========+========+========+========+========+========+========+
02/25/2018 05:30:00    18.62     4.50    33.69     0.00     0.00
02/25/2018 06:00:00    18.60     4.49    33.68     0.00     0.00
02/25/2018 06:30:00    18.57     4.49    33.67     0.00     0.00
02/25/2018 07:00:00    18.56     4.49    33.67     0.00     0.00
02/25/2018 07:30:00    18.57     4.49    33.67     0.00     0.00
02/25/2018 08:00:00    18.57     4.49    33.67     0.00     0.00
02/25/2018 08:30:00    18.59     4.49    33.67     0.00     0.00
02/25/2018 09:00:00    18.59     4.49    33.67     0.00     0.00
02/25/2018 09:30:00    18.58     4.49    33.67     0.00     0.00
02/25/2018 10:00:00    18.58     4.49    33.67     0.00     0.00
02/25/2018 10:30:00    18.58     4.49    33.67     0.00     0.00
02/25/2018 11:00:00    18.58     4.49    33.66     0.00     0.00
02/25/2018 11:30:00    18.59     4.49    33.67     0.00     0.00
02/25/2018 12:00:00    18.59     4.49    33.67     0.00     0.00
02/25/2018 12:30:00    18.56     4.49    33.67     0.00     0.00
02/25/2018 13:00:00    18.55     4.49    33.67     0.00     0.00
02/25/2018 13:30:00    18.55     4.49    33.68     0.00     0.00
02/25/2018 14:00:00    18.56     4.49    33.69     0.00     0.00
02/25/2018 14:30:00    18.57     4.49    33.69     0.00     0.00
02/25/2018 15:00:00    18.60     4.49    33.69     0.00     0.00
02/25/2018 15:30:00    18.62     4.50    33.70     0.00     0.00
02/25/2018 16:00:00    18.67     4.50    33.71     0.00     0.00
02/25/2018 16:30:00    18.72     4.51    33.73     0.00     0.00
02/25/2018 17:00:00    18.78     4.52    33.72     0.00     0.00
02/25/2018 17:30:00    18.76     4.52    33.75     0.00     0.00
02/25/2018 18:00:00    18.78     4.52    33.76     0.00     0.00
02/25/2018 18:30:00    18.81     4.53    33.79     0.00     0.00
02/25/2018 19:00:00    18.91     4.54    33.82     0.00     0.00
02/25/2018 19:30:00    18.98     4.55    33.86     0.00     0.00
02/25/2018 20:00:00    19.10     4.57    33.90     0.00     0.00
02/25/2018 20:30:00    19.21     4.59    33.97     0.00     0.00
02/25/2018 21:00:00    19.25     4.59    33.98     0.00     0.00
02/25/2018 21:30:00    19.27     4.60    34.00     0.00     0.00
02/25/2018 22:00:00    19.07     4.57    33.91     0.00     0.00
02/25/2018 22:30:00    18.75     4.53    33.83     0.00     0.00
02/25/2018 23:00:00    18.56     4.50    33.78     0.00     0.00
02/25/2018 23:30:00    18.56     4.50    33.80     0.00     0.00
02/26/2018 00:00:00    18.75     4.52    33.75     0.00     0.00
02/26/2018 00:30:00    18.54     4.49    33.73     0.00     0.00
02/26/2018 01:00:00    18.59     4.50    33.75     0.00     0.00